sensor_id;sensor_type;location;lat;lon;timestamp;P1;durP1;ratioP1;P2;durP2;ratioP2
11839;SDS011;5979;50.800;4.904;2023-01-10T00:00:26;4.22;;;2.50;;
11839;SDS011;5979;50.800;4.904;2023-01-10T00:03:04;8.02;;;2.67;;
11839;SDS011;5979;50.800;4.904;2023-01-10T00:05:32;7.25;;;3.05;;
11839;SDS011;5979;50.800;4.904;2023-01-10T00:07:59;10.30;;;2.83;;
11839;SDS011;5979;50.800;4.904;2023-01-10T00:10:26;6.45;;;2.75;;
11839;SDS011;5979;50.800;4.904;2023-01-10T00:12:52;8.15;;;2.97;;
11839;SDS011;5979;50.800;4.904;2023-01-10T00:15:36;8.43;;;3.20;;
11839;SDS011;5979;50.800;4.904;2023-01-10T00:18:02;7.97;;;2.70;;
11839;SDS011;5979;50.800;4.904;2023-01-10T00:20:28;11.07;;;3.67;;
11839;SDS011;5979;50.800;4.904;2023-01-10T00:22:54;6.80;;;2.58;;
11839;SDS011;5979;50.800;4.904;2023-01-10T00:25:20;8.32;;;3.33;;
11839;SDS011;5979;50.800;4.904;2023-01-10T00:27:49;7.65;;;2.95;;
11839;SDS011;5979;50.800;4.904;2023-01-10T00:30:25;11.00;;;3.58;;
11839;SDS011;5979;50.800;4.904;2023-01-10T00:32:51;10.20;;;3.28;;
11839;SDS011;5979;50.800;4.904;2023-01-10T00:35:17;5.40;;;2.78;;
11839;SDS011;5979;50.800;4.904;2023-01-10T00:37:44;7.28;;;3.13;;
11839;SDS011;5979;50.800;4.904;2023-01-10T00:40:10;6.32;;;2.65;;
11839;SDS011;5979;50.800;4.904;2023-01-10T00:42:36;9.82;;;3.42;;
11839;SDS011;5979;50.800;4.904;2023-01-10T00:45:21;10.10;;;3.13;;
11839;SDS011;5979;50.800;4.904;2023-01-10T00:47:49;9.88;;;3.35;;
11839;SDS011;5979;50.800;4.904;2023-01-10T00:50:15;6.43;;;3.08;;
11839;SDS011;5979;50.800;4.904;2023-01-10T00:52:41;9.60;;;3.33;;
11839;SDS011;5979;50.800;4.904;2023-01-10T00:55:07;9.68;;;3.35;;
11839;SDS011;5979;50.800;4.904;2023-01-10T00:57:33;9.35;;;3.20;;
11839;SDS011;5979;50.800;4.904;2023-01-10T00:59:58;8.02;;;3.28;;
11839;SDS011;5979;50.800;4.904;2023-01-10T01:02:24;7.05;;;3.15;;
11839;SDS011;5979;50.800;4.904;2023-01-10T01:04:50;7.78;;;2.88;;
11839;SDS011;5979;50.800;4.904;2023-01-10T01:07:16;9.02;;;3.42;;
11839;SDS011;5979;50.800;4.904;2023-01-10T01:09:41;9.85;;;3.10;;
11839;SDS011;5979;50.800;4.904;2023-01-10T01:12:25;13.77;;;3.03;;
11839;SDS011;5979;50.800;4.904;2023-01-10T01:14:51;7.63;;;2.70;;
11839;SDS011;5979;50.800;4.904;2023-01-10T01:17:17;8.45;;;2.85;;
11839;SDS011;5979;50.800;4.904;2023-01-10T01:19:43;4.43;;;2.50;;
11839;SDS011;5979;50.800;4.904;2023-01-10T01:22:09;11.10;;;2.97;;
11839;SDS011;5979;50.800;4.904;2023-01-10T01:24:34;8.95;;;3.00;;
11839;SDS011;5979;50.800;4.904;2023-01-10T01:27:00;8.38;;;3.15;;
11839;SDS011;5979;50.800;4.904;2023-01-10T01:29:26;9.93;;;3.47;;
11839;SDS011;5979;50.800;4.904;2023-01-10T01:31:51;13.90;;;3.25;;
11839;SDS011;5979;50.800;4.904;2023-01-10T01:34:17;12.90;;;3.22;;
11839;SDS011;5979;50.800;4.904;2023-01-10T01:36:43;9.32;;;3.95;;
11839;SDS011;5979;50.800;4.904;2023-01-10T01:39:08;10.73;;;3.38;;
11839;SDS011;5979;50.800;4.904;2023-01-10T01:41:34;11.77;;;3.45;;
11839;SDS011;5979;50.800;4.904;2023-01-10T01:44:18;7.72;;;3.15;;
11839;SDS011;5979;50.800;4.904;2023-01-10T01:46:45;10.18;;;2.83;;
11839;SDS011;5979;50.800;4.904;2023-01-10T01:49:28;5.55;;;3.00;;
11839;SDS011;5979;50.800;4.904;2023-01-10T01:51:58;12.32;;;3.33;;
11839;SDS011;5979;50.800;4.904;2023-01-10T01:54:31;6.97;;;3.13;;
11839;SDS011;5979;50.800;4.904;2023-01-10T01:57:00;8.57;;;3.67;;
11839;SDS011;5979;50.800;4.904;2023-01-10T01:59:33;12.52;;;3.78;;
11839;SDS011;5979;50.800;4.904;2023-01-10T02:02:06;7.68;;;3.13;;
11839;SDS011;5979;50.800;4.904;2023-01-10T02:04:52;7.88;;;2.85;;
11839;SDS011;5979;50.800;4.904;2023-01-10T02:07:25;11.25;;;3.08;;
11839;SDS011;5979;50.800;4.904;2023-01-10T02:09:57;7.80;;;2.72;;
11839;SDS011;5979;50.800;4.904;2023-01-10T02:12:41;8.85;;;3.03;;
11839;SDS011;5979;50.800;4.904;2023-01-10T02:15:10;13.73;;;2.92;;
11839;SDS011;5979;50.800;4.904;2023-01-10T02:17:36;14.13;;;3.47;;
11839;SDS011;5979;50.800;4.904;2023-01-10T02:20:06;10.82;;;3.55;;
11839;SDS011;5979;50.800;4.904;2023-01-10T02:30:33;8.23;;;2.90;;
11839;SDS011;5979;50.800;4.904;2023-01-10T02:43:49;4.63;;;2.60;;
11839;SDS011;5979;50.800;4.904;2023-01-10T02:46:20;10.60;;;3.50;;
11839;SDS011;5979;50.800;4.904;2023-01-10T02:48:51;9.05;;;3.03;;
11839;SDS011;5979;50.800;4.904;2023-01-10T02:51:19;10.30;;;3.42;;
11839;SDS011;5979;50.800;4.904;2023-01-10T02:53:48;11.98;;;3.40;;
11839;SDS011;5979;50.800;4.904;2023-01-10T02:56:25;13.40;;;3.90;;
11839;SDS011;5979;50.800;4.904;2023-01-10T03:07:35;10.85;;;2.90;;
11839;SDS011;5979;50.800;4.904;2023-01-10T03:13:13;12.93;;;4.22;;
11839;SDS011;5979;50.800;4.904;2023-01-10T03:15:44;11.50;;;3.37;;
11839;SDS011;5979;50.800;4.904;2023-01-10T03:18:13;10.25;;;3.28;;
11839;SDS011;5979;50.800;4.904;2023-01-10T03:20:43;11.90;;;3.22;;
11839;SDS011;5979;50.800;4.904;2023-01-10T03:23:11;9.80;;;3.43;;
11839;SDS011;5979;50.800;4.904;2023-01-10T03:25:39;11.38;;;3.80;;
11839;SDS011;5979;50.800;4.904;2023-01-10T03:28:08;11.80;;;3.20;;
11839;SDS011;5979;50.800;4.904;2023-01-10T03:33:33;12.15;;;3.55;;
11839;SDS011;5979;50.800;4.904;2023-01-10T03:36:16;17.20;;;3.90;;
11839;SDS011;5979;50.800;4.904;2023-01-10T03:39:11;14.20;;;4.18;;
11839;SDS011;5979;50.800;4.904;2023-01-10T03:44:16;12.13;;;3.65;;
11839;SDS011;5979;50.800;4.904;2023-01-10T03:49:43;8.88;;;3.40;;
11839;SDS011;5979;50.800;4.904;2023-01-10T03:52:12;8.40;;;3.35;;
11839;SDS011;5979;50.800;4.904;2023-01-10T03:54:41;11.18;;;3.22;;
11839;SDS011;5979;50.800;4.904;2023-01-10T03:57:15;11.38;;;3.45;;
11839;SDS011;5979;50.800;4.904;2023-01-10T03:59:45;13.05;;;3.55;;
11839;SDS011;5979;50.800;4.904;2023-01-10T04:02:14;16.77;;;4.05;;
11839;SDS011;5979;50.800;4.904;2023-01-10T04:04:40;13.85;;;3.55;;
11839;SDS011;5979;50.800;4.904;2023-01-10T04:07:05;10.85;;;2.97;;
11839;SDS011;5979;50.800;4.904;2023-01-10T04:09:31;10.98;;;3.33;;
11839;SDS011;5979;50.800;4.904;2023-01-10T04:11:57;12.63;;;3.20;;
11839;SDS011;5979;50.800;4.904;2023-01-10T04:14:23;15.30;;;3.42;;
11839;SDS011;5979;50.800;4.904;2023-01-10T04:16:49;9.25;;;3.28;;
11839;SDS011;5979;50.800;4.904;2023-01-10T04:19:14;14.77;;;3.50;;
11839;SDS011;5979;50.800;4.904;2023-01-10T04:21:40;13.35;;;3.88;;
11839;SDS011;5979;50.800;4.904;2023-01-10T04:24:06;13.02;;;3.50;;
11839;SDS011;5979;50.800;4.904;2023-01-10T04:26:32;10.82;;;3.85;;
11839;SDS011;5979;50.800;4.904;2023-01-10T04:28:57;16.33;;;4.82;;
11839;SDS011;5979;50.800;4.904;2023-01-10T04:31:23;11.73;;;3.50;;
11839;SDS011;5979;50.800;4.904;2023-01-10T04:33:50;15.40;;;3.45;;
11839;SDS011;5979;50.800;4.904;2023-01-10T04:36:16;10.95;;;4.20;;
11839;SDS011;5979;50.800;4.904;2023-01-10T04:38:42;14.45;;;4.13;;
11839;SDS011;5979;50.800;4.904;2023-01-10T04:41:08;10.75;;;3.72;;
11839;SDS011;5979;50.800;4.904;2023-01-10T04:43:34;13.20;;;4.00;;
11839;SDS011;5979;50.800;4.904;2023-01-10T04:45:59;10.88;;;3.45;;
11839;SDS011;5979;50.800;4.904;2023-01-10T04:48:25;10.52;;;3.83;;
11839;SDS011;5979;50.800;4.904;2023-01-10T04:50:51;16.48;;;3.70;;
11839;SDS011;5979;50.800;4.904;2023-01-10T04:53:18;10.95;;;3.47;;
11839;SDS011;5979;50.800;4.904;2023-01-10T04:55:45;16.05;;;4.20;;
11839;SDS011;5979;50.800;4.904;2023-01-10T04:58:11;15.05;;;4.72;;
11839;SDS011;5979;50.800;4.904;2023-01-10T05:00:37;17.67;;;4.45;;
11839;SDS011;5979;50.800;4.904;2023-01-10T05:03:03;12.63;;;3.83;;
11839;SDS011;5979;50.800;4.904;2023-01-10T05:05:29;16.80;;;4.22;;
11839;SDS011;5979;50.800;4.904;2023-01-10T05:07:55;15.60;;;4.32;;
11839;SDS011;5979;50.800;4.904;2023-01-10T05:10:21;15.27;;;4.28;;
11839;SDS011;5979;50.800;4.904;2023-01-10T05:12:46;18.25;;;3.97;;
11839;SDS011;5979;50.800;4.904;2023-01-10T05:15:12;17.58;;;3.85;;
11839;SDS011;5979;50.800;4.904;2023-01-10T05:17:38;19.85;;;4.60;;
11839;SDS011;5979;50.800;4.904;2023-01-10T05:20:04;13.10;;;3.53;;
11839;SDS011;5979;50.800;4.904;2023-01-10T05:22:30;17.00;;;4.75;;
11839;SDS011;5979;50.800;4.904;2023-01-10T05:24:55;12.50;;;3.60;;
11839;SDS011;5979;50.800;4.904;2023-01-10T05:27:21;17.75;;;4.97;;
11839;SDS011;5979;50.800;4.904;2023-01-10T05:29:47;17.48;;;4.60;;
11839;SDS011;5979;50.800;4.904;2023-01-10T05:32:13;15.63;;;4.18;;
11839;SDS011;5979;50.800;4.904;2023-01-10T05:34:38;9.85;;;3.72;;
11839;SDS011;5979;50.800;4.904;2023-01-10T05:37:04;22.42;;;4.45;;
11839;SDS011;5979;50.800;4.904;2023-01-10T05:39:30;10.98;;;4.30;;
11839;SDS011;5979;50.800;4.904;2023-01-10T05:41:55;13.18;;;4.20;;
11839;SDS011;5979;50.800;4.904;2023-01-10T05:44:21;12.50;;;4.15;;
11839;SDS011;5979;50.800;4.904;2023-01-10T05:46:46;15.93;;;4.50;;
11839;SDS011;5979;50.800;4.904;2023-01-10T05:49:12;13.35;;;4.00;;
11839;SDS011;5979;50.800;4.904;2023-01-10T05:51:38;15.18;;;4.53;;
11839;SDS011;5979;50.800;4.904;2023-01-10T05:54:04;15.00;;;4.47;;
11839;SDS011;5979;50.800;4.904;2023-01-10T05:56:30;14.35;;;4.88;;
11839;SDS011;5979;50.800;4.904;2023-01-10T05:58:55;12.05;;;4.72;;
11839;SDS011;5979;50.800;4.904;2023-01-10T06:01:21;18.60;;;4.97;;
11839;SDS011;5979;50.800;4.904;2023-01-10T06:03:47;14.73;;;3.75;;
11839;SDS011;5979;50.800;4.904;2023-01-10T06:06:12;11.47;;;3.63;;
11839;SDS011;5979;50.800;4.904;2023-01-10T06:08:38;15.17;;;4.27;;
11839;SDS011;5979;50.800;4.904;2023-01-10T06:11:05;14.70;;;4.70;;
11839;SDS011;5979;50.800;4.904;2023-01-10T06:13:31;10.10;;;3.55;;
11839;SDS011;5979;50.800;4.904;2023-01-10T06:15:57;21.63;;;3.90;;
11839;SDS011;5979;50.800;4.904;2023-01-10T06:18:23;10.68;;;3.28;;
11839;SDS011;5979;50.800;4.904;2023-01-10T06:20:48;10.85;;;3.53;;
11839;SDS011;5979;50.800;4.904;2023-01-10T06:23:14;13.95;;;3.70;;
11839;SDS011;5979;50.800;4.904;2023-01-10T06:25:40;16.45;;;4.25;;
11839;SDS011;5979;50.800;4.904;2023-01-10T06:28:10;18.13;;;4.10;;
11839;SDS011;5979;50.800;4.904;2023-01-10T06:30:37;14.23;;;3.83;;
11839;SDS011;5979;50.800;4.904;2023-01-10T06:33:06;13.40;;;3.87;;
11839;SDS011;5979;50.800;4.904;2023-01-10T06:35:33;11.80;;;3.63;;
11839;SDS011;5979;50.800;4.904;2023-01-10T06:37:59;19.10;;;3.97;;
11839;SDS011;5979;50.800;4.904;2023-01-10T06:40:25;11.43;;;3.57;;
11839;SDS011;5979;50.800;4.904;2023-01-10T06:42:52;12.23;;;3.72;;
11839;SDS011;5979;50.800;4.904;2023-01-10T06:45:18;13.53;;;3.73;;
11839;SDS011;5979;50.800;4.904;2023-01-10T06:47:44;16.97;;;3.53;;
11839;SDS011;5979;50.800;4.904;2023-01-10T06:50:10;11.35;;;3.83;;
11839;SDS011;5979;50.800;4.904;2023-01-10T06:52:36;14.93;;;3.70;;
11839;SDS011;5979;50.800;4.904;2023-01-10T06:55:02;10.73;;;3.50;;
11839;SDS011;5979;50.800;4.904;2023-01-10T06:57:28;14.23;;;3.97;;
11839;SDS011;5979;50.800;4.904;2023-01-10T06:59:54;12.23;;;3.47;;
11839;SDS011;5979;50.800;4.904;2023-01-10T07:02:20;15.67;;;3.47;;
11839;SDS011;5979;50.800;4.904;2023-01-10T07:04:47;15.13;;;3.60;;
11839;SDS011;5979;50.800;4.904;2023-01-10T07:07:13;11.63;;;4.17;;
11839;SDS011;5979;50.800;4.904;2023-01-10T07:09:38;11.23;;;3.70;;
11839;SDS011;5979;50.800;4.904;2023-01-10T07:12:04;11.37;;;3.40;;
11839;SDS011;5979;50.800;4.904;2023-01-10T07:14:30;12.43;;;4.32;;
11839;SDS011;5979;50.800;4.904;2023-01-10T07:16:56;13.73;;;3.45;;
11839;SDS011;5979;50.800;4.904;2023-01-10T07:19:22;14.27;;;3.73;;
11839;SDS011;5979;50.800;4.904;2023-01-10T07:21:47;16.63;;;4.47;;
11839;SDS011;5979;50.800;4.904;2023-01-10T07:24:13;9.97;;;3.43;;
11839;SDS011;5979;50.800;4.904;2023-01-10T07:26:39;16.23;;;5.00;;
11839;SDS011;5979;50.800;4.904;2023-01-10T07:29:04;15.07;;;3.80;;
11839;SDS011;5979;50.800;4.904;2023-01-10T07:31:30;19.47;;;4.37;;
11839;SDS011;5979;50.800;4.904;2023-01-10T07:33:56;12.47;;;3.30;;
11839;SDS011;5979;50.800;4.904;2023-01-10T07:36:22;14.70;;;3.90;;
11839;SDS011;5979;50.800;4.904;2023-01-10T07:38:47;9.47;;;3.53;;
11839;SDS011;5979;50.800;4.904;2023-01-10T07:41:13;13.63;;;3.57;;
11839;SDS011;5979;50.800;4.904;2023-01-10T07:43:39;8.80;;;3.37;;
11839;SDS011;5979;50.800;4.904;2023-01-10T07:46:05;14.30;;;3.67;;
11839;SDS011;5979;50.800;4.904;2023-01-10T07:48:36;14.47;;;3.40;;
11839;SDS011;5979;50.800;4.904;2023-01-10T07:51:03;10.43;;;3.40;;
11839;SDS011;5979;50.800;4.904;2023-01-10T07:53:29;17.50;;;4.27;;
11839;SDS011;5979;50.800;4.904;2023-01-10T07:55:59;12.97;;;4.70;;
11839;SDS011;5979;50.800;4.904;2023-01-10T07:58:26;16.00;;;3.90;;
11839;SDS011;5979;50.800;4.904;2023-01-10T08:00:55;8.93;;;3.77;;
11839;SDS011;5979;50.800;4.904;2023-01-10T08:03:26;14.47;;;3.83;;
11839;SDS011;5979;50.800;4.904;2023-01-10T08:06:00;13.77;;;4.72;;
11839;SDS011;5979;50.800;4.904;2023-01-10T08:08:30;10.02;;;3.58;;
11839;SDS011;5979;50.800;4.904;2023-01-10T08:10:58;14.37;;;4.60;;
11839;SDS011;5979;50.800;4.904;2023-01-10T08:13:26;9.77;;;4.13;;
11839;SDS011;5979;50.800;4.904;2023-01-10T08:15:53;15.32;;;3.95;;
11839;SDS011;5979;50.800;4.904;2023-01-10T08:18:19;9.43;;;3.80;;
11839;SDS011;5979;50.800;4.904;2023-01-10T08:20:53;13.07;;;4.85;;
11839;SDS011;5979;50.800;4.904;2023-01-10T08:23:20;12.07;;;4.47;;
11839;SDS011;5979;50.800;4.904;2023-01-10T08:25:46;7.65;;;3.60;;
11839;SDS011;5979;50.800;4.904;2023-01-10T08:28:12;8.00;;;3.80;;
11839;SDS011;5979;50.800;4.904;2023-01-10T08:30:38;16.65;;;4.97;;
11839;SDS011;5979;50.800;4.904;2023-01-10T08:33:04;10.27;;;3.88;;
11839;SDS011;5979;50.800;4.904;2023-01-10T08:35:38;11.20;;;4.25;;
11839;SDS011;5979;50.800;4.904;2023-01-10T08:38:06;15.40;;;3.90;;
11839;SDS011;5979;50.800;4.904;2023-01-10T08:40:32;12.07;;;3.70;;
11839;SDS011;5979;50.800;4.904;2023-01-10T08:43:02;18.10;;;3.83;;
11839;SDS011;5979;50.800;4.904;2023-01-10T08:45:29;13.07;;;4.07;;
11839;SDS011;5979;50.800;4.904;2023-01-10T08:47:56;14.55;;;4.65;;
11839;SDS011;5979;50.800;4.904;2023-01-10T08:50:21;15.10;;;4.30;;
11839;SDS011;5979;50.800;4.904;2023-01-10T08:52:48;9.90;;;4.38;;
11839;SDS011;5979;50.800;4.904;2023-01-10T08:55:15;11.60;;;3.95;;
11839;SDS011;5979;50.800;4.904;2023-01-10T08:57:41;11.00;;;3.53;;
11839;SDS011;5979;50.800;4.904;2023-01-10T09:00:07;14.23;;;4.30;;
11839;SDS011;5979;50.800;4.904;2023-01-10T09:02:36;12.45;;;4.53;;
11839;SDS011;5979;50.800;4.904;2023-01-10T09:05:03;11.75;;;3.80;;
11839;SDS011;5979;50.800;4.904;2023-01-10T09:07:28;11.70;;;3.78;;
11839;SDS011;5979;50.800;4.904;2023-01-10T09:09:54;6.38;;;3.20;;
11839;SDS011;5979;50.800;4.904;2023-01-10T09:12:20;16.85;;;4.57;;
11839;SDS011;5979;50.800;4.904;2023-01-10T09:15:04;13.77;;;5.70;;
11839;SDS011;5979;50.800;4.904;2023-01-10T09:17:30;13.05;;;4.07;;
11839;SDS011;5979;50.800;4.904;2023-01-10T09:19:56;8.88;;;3.85;;
11839;SDS011;5979;50.800;4.904;2023-01-10T09:22:22;17.92;;;4.60;;
11839;SDS011;5979;50.800;4.904;2023-01-10T09:24:47;13.18;;;4.55;;
11839;SDS011;5979;50.800;4.904;2023-01-10T09:27:13;12.43;;;4.03;;
11839;SDS011;5979;50.800;4.904;2023-01-10T09:29:39;14.73;;;5.03;;
11839;SDS011;5979;50.800;4.904;2023-01-10T09:32:05;10.85;;;4.40;;
11839;SDS011;5979;50.800;4.904;2023-01-10T09:34:31;12.50;;;4.38;;
11839;SDS011;5979;50.800;4.904;2023-01-10T09:36:57;20.75;;;5.00;;
11839;SDS011;5979;50.800;4.904;2023-01-10T09:39:22;11.88;;;3.92;;
11839;SDS011;5979;50.800;4.904;2023-01-10T09:45:10;13.20;;;3.95;;
11839;SDS011;5979;50.800;4.904;2023-01-10T09:53:20;9.52;;;3.88;;
11839;SDS011;5979;50.800;4.904;2023-01-10T09:55:52;11.23;;;4.00;;
11839;SDS011;5979;50.800;4.904;2023-01-10T09:58:20;12.48;;;3.78;;
11839;SDS011;5979;50.800;4.904;2023-01-10T10:06:05;16.45;;;4.07;;
11839;SDS011;5979;50.800;4.904;2023-01-10T10:08:35;7.07;;;3.63;;
11839;SDS011;5979;50.800;4.904;2023-01-10T10:13:39;13.45;;;4.22;;
11839;SDS011;5979;50.800;4.904;2023-01-10T10:22:05;17.65;;;3.92;;
11839;SDS011;5979;50.800;4.904;2023-01-10T10:27:40;9.80;;;4.28;;
11839;SDS011;5979;50.800;4.904;2023-01-10T10:35:56;11.43;;;4.18;;
11839;SDS011;5979;50.800;4.904;2023-01-10T10:38:28;12.73;;;4.15;;
11839;SDS011;5979;50.800;4.904;2023-01-10T10:41:01;11.45;;;4.57;;
11839;SDS011;5979;50.800;4.904;2023-01-10T10:43:32;10.93;;;4.40;;
11839;SDS011;5979;50.800;4.904;2023-01-10T10:46:08;11.35;;;4.47;;
11839;SDS011;5979;50.800;4.904;2023-01-10T10:48:39;8.77;;;3.90;;
11839;SDS011;5979;50.800;4.904;2023-01-10T10:53:53;18.58;;;4.90;;
11839;SDS011;5979;50.800;4.904;2023-01-10T10:56:20;14.73;;;4.75;;
11839;SDS011;5979;50.800;4.904;2023-01-10T10:58:49;10.40;;;4.38;;
11839;SDS011;5979;50.800;4.904;2023-01-10T11:01:18;12.75;;;4.00;;
11839;SDS011;5979;50.800;4.904;2023-01-10T11:03:48;11.60;;;4.18;;
11839;SDS011;5979;50.800;4.904;2023-01-10T11:06:26;14.18;;;3.80;;
11839;SDS011;5979;50.800;4.904;2023-01-10T11:08:55;11.45;;;3.97;;
11839;SDS011;5979;50.800;4.904;2023-01-10T11:14:00;10.90;;;3.95;;
11839;SDS011;5979;50.800;4.904;2023-01-10T11:16:31;11.93;;;4.07;;
11839;SDS011;5979;50.800;4.904;2023-01-10T11:21:45;13.57;;;4.18;;
11839;SDS011;5979;50.800;4.904;2023-01-10T11:24:27;12.75;;;3.80;;
11839;SDS011;5979;50.800;4.904;2023-01-10T11:27:00;9.38;;;3.78;;
11839;SDS011;5979;50.800;4.904;2023-01-10T11:29:35;15.90;;;4.20;;
11839;SDS011;5979;50.800;4.904;2023-01-10T11:32:11;12.80;;;3.70;;
11839;SDS011;5979;50.800;4.904;2023-01-10T11:34:41;13.23;;;3.47;;
11839;SDS011;5979;50.800;4.904;2023-01-10T11:39:56;12.68;;;3.80;;
11839;SDS011;5979;50.800;4.904;2023-01-10T11:42:50;13.50;;;3.80;;
11839;SDS011;5979;50.800;4.904;2023-01-10T11:47:48;13.18;;;3.90;;
11839;SDS011;5979;50.800;4.904;2023-01-10T11:50:24;14.57;;;4.97;;
11839;SDS011;5979;50.800;4.904;2023-01-10T11:52:56;14.52;;;3.92;;
11839;SDS011;5979;50.800;4.904;2023-01-10T11:55:26;14.57;;;3.90;;
11839;SDS011;5979;50.800;4.904;2023-01-10T11:58:11;14.13;;;4.05;;
11839;SDS011;5979;50.800;4.904;2023-01-10T12:00:43;11.88;;;4.20;;
11839;SDS011;5979;50.800;4.904;2023-01-10T12:03:19;10.63;;;3.63;;
11839;SDS011;5979;50.800;4.904;2023-01-10T12:05:49;10.45;;;3.63;;
11839;SDS011;5979;50.800;4.904;2023-01-10T12:08:50;14.57;;;3.95;;
11839;SDS011;5979;50.800;4.904;2023-01-10T12:16:22;13.77;;;4.70;;
11839;SDS011;5979;50.800;4.904;2023-01-10T12:18:50;15.05;;;4.15;;
11839;SDS011;5979;50.800;4.904;2023-01-10T12:21:22;10.90;;;3.85;;
11839;SDS011;5979;50.800;4.904;2023-01-10T12:23:56;14.38;;;3.92;;
11839;SDS011;5979;50.800;4.904;2023-01-10T12:26:28;13.40;;;4.22;;
11839;SDS011;5979;50.800;4.904;2023-01-10T12:28:56;14.13;;;4.10;;
11839;SDS011;5979;50.800;4.904;2023-01-10T12:31:25;11.10;;;3.13;;
11839;SDS011;5979;50.800;4.904;2023-01-10T12:33:54;16.30;;;4.75;;
11839;SDS011;5979;50.800;4.904;2023-01-10T12:39:35;14.05;;;3.78;;
11839;SDS011;5979;50.800;4.904;2023-01-10T12:50:04;15.90;;;4.45;;
11839;SDS011;5979;50.800;4.904;2023-01-10T12:52:47;11.88;;;3.53;;
11839;SDS011;5979;50.800;4.904;2023-01-10T12:55:25;19.83;;;3.97;;
11839;SDS011;5979;50.800;4.904;2023-01-10T12:57:59;11.80;;;3.47;;
11839;SDS011;5979;50.800;4.904;2023-01-10T13:00:39;12.20;;;3.33;;
11839;SDS011;5979;50.800;4.904;2023-01-10T13:03:14;11.00;;;3.42;;
11839;SDS011;5979;50.800;4.904;2023-01-10T13:05:44;10.43;;;4.13;;
11839;SDS011;5979;50.800;4.904;2023-01-10T13:08:14;10.15;;;3.50;;
11839;SDS011;5979;50.800;4.904;2023-01-10T13:10:42;7.68;;;3.95;;
11839;SDS011;5979;50.800;4.904;2023-01-10T13:21:45;8.10;;;2.95;;
11839;SDS011;5979;50.800;4.904;2023-01-10T13:26:47;8.88;;;3.20;;
11839;SDS011;5979;50.800;4.904;2023-01-10T13:29:20;8.75;;;3.47;;
11839;SDS011;5979;50.800;4.904;2023-01-10T13:32:02;7.38;;;3.05;;
11839;SDS011;5979;50.800;4.904;2023-01-10T13:38:02;8.95;;;3.30;;
11839;SDS011;5979;50.800;4.904;2023-01-10T13:40:28;8.95;;;3.08;;
11839;SDS011;5979;50.800;4.904;2023-01-10T13:49:20;9.13;;;3.20;;
11839;SDS011;5979;50.800;4.904;2023-01-10T13:51:34;9.45;;;3.42;;
11839;SDS011;5979;50.800;4.904;2023-01-10T13:54:23;11.38;;;3.35;;
11839;SDS011;5979;50.800;4.904;2023-01-10T13:56:50;6.22;;;3.10;;
11839;SDS011;5979;50.800;4.904;2023-01-10T14:02:14;6.88;;;2.90;;
11839;SDS011;5979;50.800;4.904;2023-01-10T14:04:59;8.55;;;2.42;;
11839;SDS011;5979;50.800;4.904;2023-01-10T14:07:42;4.90;;;2.58;;
11839;SDS011;5979;50.800;4.904;2023-01-10T14:10:23;10.10;;;2.70;;
11839;SDS011;5979;50.800;4.904;2023-01-10T14:15:40;7.30;;;2.78;;
11839;SDS011;5979;50.800;4.904;2023-01-10T14:18:23;6.10;;;2.30;;
11839;SDS011;5979;50.800;4.904;2023-01-10T14:20:57;6.07;;;2.28;;
11839;SDS011;5979;50.800;4.904;2023-01-10T14:23:39;8.40;;;2.63;;
11839;SDS011;5979;50.800;4.904;2023-01-10T14:26:12;3.08;;;2.20;;
11839;SDS011;5979;50.800;4.904;2023-01-10T14:28:47;7.30;;;2.25;;
11839;SDS011;5979;50.800;4.904;2023-01-10T14:31:17;8.68;;;2.80;;
11839;SDS011;5979;50.800;4.904;2023-01-10T14:33:45;6.70;;;2.28;;
11839;SDS011;5979;50.800;4.904;2023-01-10T14:36:24;4.15;;;1.80;;
11839;SDS011;5979;50.800;4.904;2023-01-10T14:38:53;4.68;;;2.28;;
11839;SDS011;5979;50.800;4.904;2023-01-10T14:41:34;6.13;;;2.10;;
11839;SDS011;5979;50.800;4.904;2023-01-10T14:44:15;4.25;;;2.22;;
11839;SDS011;5979;50.800;4.904;2023-01-10T14:47:20;7.20;;;2.40;;
11839;SDS011;5979;50.800;4.904;2023-01-10T14:49:58;4.38;;;2.00;;
11839;SDS011;5979;50.800;4.904;2023-01-10T14:52:30;3.38;;;1.48;;
11839;SDS011;5979;50.800;4.904;2023-01-10T14:55:30;3.35;;;1.77;;
11839;SDS011;5979;50.800;4.904;2023-01-10T14:57:59;2.03;;;1.80;;
11839;SDS011;5979;50.800;4.904;2023-01-10T15:00:32;3.63;;;1.70;;
11839;SDS011;5979;50.800;4.904;2023-01-10T15:03:00;6.57;;;2.10;;
11839;SDS011;5979;50.800;4.904;2023-01-10T15:05:38;4.68;;;2.30;;
11839;SDS011;5979;50.800;4.904;2023-01-10T15:08:24;1.90;;;1.80;;
11839;SDS011;5979;50.800;4.904;2023-01-10T15:10:52;2.22;;;1.42;;
11839;SDS011;5979;50.800;4.904;2023-01-10T15:13:22;3.40;;;1.50;;
11839;SDS011;5979;50.800;4.904;2023-01-10T15:15:52;4.43;;;1.52;;
11839;SDS011;5979;50.800;4.904;2023-01-10T15:21:05;1.65;;;1.35;;
11839;SDS011;5979;50.800;4.904;2023-01-10T15:23:35;2.33;;;1.38;;
11839;SDS011;5979;50.800;4.904;2023-01-10T15:26:47;2.85;;;1.10;;
11839;SDS011;5979;50.800;4.904;2023-01-10T15:31:48;2.25;;;1.60;;
11839;SDS011;5979;50.800;4.904;2023-01-10T15:34:15;2.75;;;1.40;;
11839;SDS011;5979;50.800;4.904;2023-01-10T15:37:04;1.98;;;1.30;;
11839;SDS011;5979;50.800;4.904;2023-01-10T15:39:33;2.83;;;1.55;;
11839;SDS011;5979;50.800;4.904;2023-01-10T15:42:05;1.45;;;1.35;;
11839;SDS011;5979;50.800;4.904;2023-01-10T15:44:40;3.83;;;1.10;;
11839;SDS011;5979;50.800;4.904;2023-01-10T15:50:21;0.98;;;0.98;;
11839;SDS011;5979;50.800;4.904;2023-01-10T15:53:00;1.13;;;1.13;;
11839;SDS011;5979;50.800;4.904;2023-01-10T15:58:04;1.20;;;1.02;;
11839;SDS011;5979;50.800;4.904;2023-01-10T16:00:41;1.52;;;1.42;;
11839;SDS011;5979;50.800;4.904;2023-01-10T16:03:54;1.85;;;1.25;;
11839;SDS011;5979;50.800;4.904;2023-01-10T16:06:02;1.63;;;1.25;;
11839;SDS011;5979;50.800;4.904;2023-01-10T16:08:33;3.60;;;1.45;;
11839;SDS011;5979;50.800;4.904;2023-01-10T16:11:05;2.10;;;1.25;;
11839;SDS011;5979;50.800;4.904;2023-01-10T16:13:33;1.38;;;0.90;;
11839;SDS011;5979;50.800;4.904;2023-01-10T16:16:01;1.92;;;1.10;;
11839;SDS011;5979;50.800;4.904;2023-01-10T16:18:29;1.40;;;0.88;;
11839;SDS011;5979;50.800;4.904;2023-01-10T16:20:56;1.42;;;0.95;;
11839;SDS011;5979;50.800;4.904;2023-01-10T16:23:24;1.80;;;1.13;;
11839;SDS011;5979;50.800;4.904;2023-01-10T16:25:59;1.85;;;1.00;;
11839;SDS011;5979;50.800;4.904;2023-01-10T16:28:28;1.05;;;0.95;;
11839;SDS011;5979;50.800;4.904;2023-01-10T16:30:59;1.35;;;0.93;;
11839;SDS011;5979;50.800;4.904;2023-01-10T16:33:26;0.77;;;0.77;;
11839;SDS011;5979;50.800;4.904;2023-01-10T16:35:55;1.35;;;0.90;;
11839;SDS011;5979;50.800;4.904;2023-01-10T16:38:23;1.20;;;1.00;;
11839;SDS011;5979;50.800;4.904;2023-01-10T16:40:51;0.70;;;0.70;;
11839;SDS011;5979;50.800;4.904;2023-01-10T16:43:20;0.60;;;0.60;;
11839;SDS011;5979;50.800;4.904;2023-01-10T16:45:50;0.80;;;0.80;;
11839;SDS011;5979;50.800;4.904;2023-01-10T16:48:18;0.57;;;0.57;;
11839;SDS011;5979;50.800;4.904;2023-01-10T16:50:45;1.20;;;1.10;;
11839;SDS011;5979;50.800;4.904;2023-01-10T16:53:13;0.82;;;0.82;;
11839;SDS011;5979;50.800;4.904;2023-01-10T16:58:06;0.60;;;0.60;;
11839;SDS011;5979;50.800;4.904;2023-01-10T17:00:33;0.70;;;0.70;;
11839;SDS011;5979;50.800;4.904;2023-01-10T17:03:00;0.50;;;0.45;;
11839;SDS011;5979;50.800;4.904;2023-01-10T17:05:29;1.00;;;1.00;;
11839;SDS011;5979;50.800;4.904;2023-01-10T17:07:54;0.80;;;0.80;;
11839;SDS011;5979;50.800;4.904;2023-01-10T17:10:20;1.35;;;0.60;;
11839;SDS011;5979;50.800;4.904;2023-01-10T17:12:46;0.63;;;0.63;;
11839;SDS011;5979;50.800;4.904;2023-01-10T17:15:12;1.83;;;0.65;;
11839;SDS011;5979;50.800;4.904;2023-01-10T17:17:39;0.52;;;0.52;;
11839;SDS011;5979;50.800;4.904;2023-01-10T17:20:09;0.65;;;0.65;;
11839;SDS011;5979;50.800;4.904;2023-01-10T17:22:36;0.65;;;0.60;;
11839;SDS011;5979;50.800;4.904;2023-01-10T17:25:02;0.63;;;0.63;;
11839;SDS011;5979;50.800;4.904;2023-01-10T17:27:27;0.82;;;0.57;;